Englewood, Florida
Current Conditions -  °F | °C
As of 1:53 PM on Friday 24 Oct 2014 (Local Time) from KPGD Reporting Station
Scattered Clouds Scattered Clouds  
Wind Chill: 83°   Ceiling: Unl
Heat Index: 84°   Visibility: 10mi
Dew Point: 64°   Wind: 15mph
Humidity: 53%   Direction: 60°ENE
Pressure: 29.92"   Gusts: 21mph
Location:  26.95°N, 82.35°W
Report Text: KPGD 241753Z 06013G18KT 10SM SCT040 28/18 A2992 RMK AO2 SLP132 T02830178 10289 20172 58021
Loading
Personal Weather Stations






























Interactive Weather Map
Tropical Storm Tracking
New forecast layout! Learn more

10-Day Weather Forecast

Advertisements
Track Severe Weather on mobile